Time;durP1;ratioP1;P1;durP2;ratioP2;P2;SDS_P1;SDS_P2;PMS_P1;PMS_P2;Temp;Humidity;BMP_temperature;BMP_pressure;BME280_temperature;BME280_humidity;BME280_pressure;Samples;Min_cycle;Max_cycle;Signal;HPM_P1;HPM_P2
2021/01/12 00:00:08;;;;;;;19.43;16.77;;;;;;;4.92;100.00;99796.69;5073917;28;20186;-72
2021/01/12 00:02:38;;;;;;;18.63;16.07;;;;;;;4.91;100.00;99805.03;5073719;28;20256;-72
2021/01/12 00:05:05;;;;;;;20.63;18.33;;;;;;;4.89;100.00;99791.84;5089560;28;20655;-72
2021/01/12 00:07:33;;;;;;;19.03;17.00;;;;;;;4.92;100.00;99791.31;5057105;28;20186;-72
2021/01/12 00:09:58;;;;;;;18.73;15.80;;;;;;;4.99;100.00;99784.66;5073687;28;20210;-73
2021/01/12 00:12:24;;;;;;;16.33;14.23;;;;;;;5.01;100.00;99771.75;5072536;28;20210;-72
2021/01/12 00:14:50;;;;;;;17.27;15.50;;;;;;;5.07;100.00;99776.13;5056521;28;20186;-72
2021/01/12 00:17:15;;;;;;;18.77;16.60;;;;;;;5.08;100.00;99780.41;5056299;28;20221;-72
2021/01/12 00:19:41;;;;;;;17.77;15.97;;;;;;;5.05;100.00;99780.13;5072582;28;20190;-72
2021/01/12 00:22:14;;;;;;;18.47;15.30;;;;;;;5.01;100.00;99779.81;5056174;28;20236;-72
2021/01/12 00:24:47;;;;;;;17.03;15.23;;;;;;;5.05;100.00;99764.81;5057683;28;20218;-72
2021/01/12 00:27:15;;;;;;;16.60;14.80;;;;;;;5.14;100.00;99768.63;5073046;28;20637;-72
2021/01/12 00:29:41;;;;;;;18.37;15.50;;;;;;;5.21;100.00;99769.22;5056919;28;20182;-72
2021/01/12 00:32:09;;;;;;;17.67;15.30;;;;;;;5.19;100.00;99755.19;5072903;28;20225;-72
2021/01/12 00:34:38;;;;;;;18.67;16.33;;;;;;;5.09;100.00;99752.47;5089499;28;20703;-72
2021/01/12 00:37:03;;;;;;;18.37;16.37;;;;;;;5.23;100.00;99760.88;5072578;28;20246;-73
2021/01/12 00:39:30;;;;;;;18.20;15.60;;;;;;;5.10;100.00;99751.38;5053121;28;20186;-72
2021/01/12 00:41:56;;;;;;;17.50;14.57;;;;;;;5.12;100.00;99757.31;5069217;28;20223;-72
2021/01/12 00:44:22;;;;;;;18.33;15.70;;;;;;;5.10;100.00;99748.69;5019506;28;20626;-72
2021/01/12 00:46:48;;;;;;;17.50;15.13;;;;;;;5.13;100.00;99745.47;5068600;28;20222;-72
2021/01/12 00:49:16;;;;;;;17.20;15.10;;;;;;;5.22;100.00;99743.94;5053119;28;20236;-72
2021/01/12 00:51:44;;;;;;;21.50;18.07;;;;;;;5.22;100.00;99738.56;5036759;28;20229;-72
2021/01/12 00:54:12;;;;;;;17.77;15.87;;;;;;;5.21;100.00;99728.84;5069495;28;20203;-73
2021/01/12 00:56:41;;;;;;;18.07;15.50;;;;;;;5.22;100.00;99730.47;5035799;28;20214;-72
2021/01/12 00:59:09;;;;;;;17.27;15.47;;;;;;;5.18;100.00;99732.06;5069662;28;20183;-72
2021/01/12 01:01:36;;;;;;;17.40;15.53;;;;;;;5.26;100.00;99728.88;5068700;28;20234;-72
2021/01/12 01:04:02;;;;;;;17.27;15.40;;;;;;;5.19;100.00;99722.91;5036095;28;20203;-72
2021/01/12 01:06:27;;;;;;;19.33;16.70;;;;;;;5.19;100.00;99728.28;5035276;28;20638;-72
2021/01/12 01:08:53;;;;;;;16.43;14.40;;;;;;;5.34;100.00;99720.31;5052984;28;20229;-72
2021/01/12 01:11:21;;;;;;;18.43;16.47;;;;;;;5.33;100.00;99725.94;5052261;28;20210;-72
2021/01/12 01:13:52;;;;;;;15.67;13.50;;;;;;;5.44;100.00;99714.97;5036373;28;20242;-72
2021/01/12 01:16:20;;;;;;;17.27;14.40;;;;;;;5.47;100.00;99717.13;5052254;28;20319;-73
2021/01/12 01:18:45;;;;;;;16.93;15.13;;;;;;;5.42;100.00;99711.72;5053185;28;20168;-72
2021/01/12 01:21:12;;;;;;;17.33;15.53;;;;;;;5.43;100.00;99713.34;5035552;28;20326;-72
2021/01/12 01:23:41;;;;;;;16.03;13.47;;;;;;;5.50;100.00;99695.06;5068701;28;20210;-72
2021/01/12 01:26:09;;;;;;;17.17;15.33;;;;;;;5.49;100.00;99696.94;5052364;28;20218;-72
2021/01/12 01:28:35;;;;;;;17.00;14.90;;;;;;;5.57;100.00;99696.44;5035912;28;20199;-72
2021/01/12 01:31:03;;;;;;;17.70;15.23;;;;;;;5.59;100.00;99690.81;5053598;28;20229;-73
2021/01/12 01:33:31;;;;;;;24.53;18.63;;;;;;;5.50;100.00;99687.00;5039826;28;20206;-72
2021/01/12 01:35:59;;;;;;;35.57;23.17;;;;;;;5.50;100.00;99687.81;5055264;28;20297;-72
2021/01/12 01:38:27;;;;;;;16.70;14.70;;;;;;;5.65;100.00;99678.97;5040015;28;20756;-72
2021/01/12 01:40:59;;;;;;;17.53;15.27;;;;;;;5.62;100.00;99676.81;5055449;28;20230;-72
2021/01/12 01:43:27;;;;;;;18.70;16.37;;;;;;;5.64;100.00;99678.19;5072831;28;20207;-73
2021/01/12 01:45:53;;;;;;;16.10;13.97;;;;;;;5.56;100.00;99667.09;5078768;28;20217;-72
2021/01/12 01:48:19;;;;;;;16.90;15.20;;;;;;;5.57;100.00;99666.84;5093147;28;20243;-72
2021/01/12 01:50:44;;;;;;;16.53;14.57;;;;;;;5.69;100.00;99662.00;5069891;28;20310;-73
2021/01/12 01:53:10;;;;;;;18.53;15.80;;;;;;;5.62;100.00;99668.72;5056075;28;20199;-72
2021/01/12 01:55:39;;;;;;;18.97;16.20;;;;;;;5.59;100.00;99659.31;5054963;28;20231;-73
2021/01/12 01:58:10;;;;;;;17.57;15.70;;;;;;;5.50;100.00;99662.78;5022849;28;20222;-73
2021/01/12 02:00:38;;;;;;;16.53;13.63;;;;;;;5.62;100.00;99656.06;5038423;28;20230;-72
2021/01/12 02:03:12;;;;;;;16.63;14.40;;;;;;;5.59;100.00;99653.09;5051878;28;20208;-72
2021/01/12 02:05:42;;;;;;;18.60;16.17;;;;;;;5.65;100.00;99655.53;5052619;28;20226;-73
2021/01/12 02:08:13;;;;;;;17.70;15.33;;;;;;;5.69;100.00;99650.44;5019303;28;20222;-73
2021/01/12 02:10:40;;;;;;;18.70;16.33;;;;;;;5.75;100.00;99648.34;5051791;28;20242;-73
2021/01/12 02:13:06;;;;;;;19.87;17.03;;;;;;;5.82;100.00;99630.03;5019066;28;20204;-73
2021/01/12 02:15:31;;;;;;;18.73;15.97;;;;;;;5.69;100.00;99636.97;5034595;28;20219;-73
2021/01/12 02:17:57;;;;;;;19.77;15.67;;;;;;;5.65;100.00;99635.88;5018723;28;20187;-72
2021/01/12 02:20:25;;;;;;;20.10;17.17;;;;;;;5.70;100.00;99631.31;5018492;28;20603;-73
2021/01/12 02:23:03;;;;;;;19.33;15.93;;;;;;;5.80;100.00;99634.84;5035479;28;20216;-72
2021/01/12 02:25:34;;;;;;;18.77;16.77;;;;;;;5.67;100.00;99622.97;5050950;28;20365;-72
2021/01/12 02:28:00;;;;;;;19.50;17.40;;;;;;;5.68;100.00;99624.56;5035858;28;20187;-73
2021/01/12 02:30:26;;;;;;;19.10;15.80;;;;;;;5.70;100.00;99617.06;5050942;28;20704;-72
2021/01/12 02:32:52;;;;;;;19.97;16.83;;;;;;;5.72;100.00;99614.91;5052203;28;20221;-72
2021/01/12 02:35:18;;;;;;;20.00;16.27;;;;;;;5.87;100.00;99613.06;5033778;28;20219;-73
2021/01/12 02:37:45;;;;;;;19.83;16.70;;;;;;;5.82;100.00;99604.97;5018858;28;20186;-72
2021/01/12 02:40:11;;;;;;;17.93;15.73;;;;;;;5.74;100.00;99602.00;5052386;28;20180;-73
2021/01/12 02:42:43;;;;;;;16.47;14.67;;;;;;;5.87;100.00;99592.31;5050964;28;20207;-72
2021/01/12 02:45:11;;;;;;;19.50;16.90;;;;;;;5.87;100.00;99594.22;5050506;28;20225;-73
2021/01/12 02:47:36;;;;;;;20.07;16.03;;;;;;;5.89;100.00;99595.53;5035128;28;20551;-73
2021/01/12 02:50:06;;;;;;;17.53;14.30;;;;;;;5.96;100.00;99596.09;5068568;28;20184;-72
2021/01/12 02:52:31;;;;;;;18.10;14.60;;;;;;;5.85;100.00;99589.06;5034555;28;20219;-73
2021/01/12 02:54:57;;;;;;;17.67;15.07;;;;;;;5.94;100.00;99587.47;5017789;28;20207;-74
2021/01/12 02:57:23;;;;;;;17.43;14.67;;;;;;;5.97;100.00;99576.19;5034639;28;20219;-73
2021/01/12 02:59:49;;;;;;;17.80;15.30;;;;;;;5.99;100.00;99568.63;5052063;28;20561;-73
2021/01/12 03:02:14;;;;;;;17.03;15.00;;;;;;;5.92;100.00;99572.66;5047837;28;20234;-72
2021/01/12 03:04:40;;;;;;;17.13;14.43;;;;;;;5.99;100.00;99563.25;5001702;28;20203;-73
2021/01/12 03:07:05;;;;;;;19.20;15.50;;;;;;;5.97;100.00;99562.69;5030961;28;20222;-72
2021/01/12 03:09:31;;;;;;;16.53;14.57;;;;;;;5.90;100.00;99554.06;5034812;28;20195;-73
2021/01/12 03:11:56;;;;;;;18.30;14.80;;;;;;;5.97;100.00;99553.78;5065605;28;20222;-73
2021/01/12 03:14:25;;;;;;;15.60;13.00;;;;;;;5.93;100.00;99548.13;5037264;28;20703;-73
2021/01/12 03:16:53;;;;;;;16.07;14.37;;;;;;;6.01;100.00;99544.91;5034047;28;20227;-73
2021/01/12 03:19:19;;;;;;;15.53;13.53;;;;;;;5.93;100.00;99541.94;5051510;28;20597;-73
2021/01/12 03:21:45;;;;;;;16.03;13.73;;;;;;;5.96;100.00;99547.59;5081997;28;20226;-73
2021/01/12 03:24:10;;;;;;;15.83;13.67;;;;;;;5.91;100.00;99528.72;5055450;28;20199;-73
2021/01/12 03:26:36;;;;;;;14.67;12.20;;;;;;;5.99;100.00;99520.13;5072487;28;20223;-73
2021/01/12 03:29:02;;;;;;;13.33;11.53;;;;;;;6.05;100.00;99519.03;5055215;28;20566;-72
2021/01/12 03:31:31;;;;;;;12.87;11.07;;;;;;;5.97;100.00;99508.81;5070375;28;20211;-73
2021/01/12 03:33:59;;;;;;;16.07;13.83;;;;;;;6.02;100.00;99503.41;5070721;28;20199;-73
2021/01/12 03:36:27;;;;;;;14.80;12.87;;;;;;;6.13;100.00;99504.19;5053414;28;20223;-73
2021/01/12 03:38:55;;;;;;;16.33;13.20;;;;;;;6.08;100.00;99512.28;5054568;28;20225;-72
2021/01/12 03:41:25;;;;;;;15.73;13.47;;;;;;;6.14;100.00;99495.84;5053081;28;20218;-73
2021/01/12 03:43:51;;;;;;;14.53;13.03;;;;;;;6.07;100.00;99494.50;5058149;28;20480;-73
2021/01/12 03:46:19;;;;;;;16.60;14.03;;;;;;;6.06;100.00;99488.28;5056132;28;20642;-73
2021/01/12 03:48:47;;;;;;;15.63;13.83;;;;;;;6.04;100.00;99492.34;5057479;28;20183;-73
2021/01/12 03:51:12;;;;;;;14.60;12.30;;;;;;;6.06;100.00;99488.28;5073827;28;20218;-73
2021/01/12 03:53:43;;;;;;;15.23;13.07;;;;;;;6.04;100.00;99476.97;5057210;28;20604;-73
2021/01/12 03:56:09;;;;;;;15.10;12.67;;;;;;;6.03;100.00;99477.28;5056174;28;20309;-73
2021/01/12 03:58:37;;;;;;;13.97;12.53;;;;;;;6.08;100.00;99483.47;5057975;28;20248;-73
2021/01/12 04:01:06;;;;;;;14.20;11.87;;;;;;;6.09;100.00;99466.19;5069922;28;20223;-72
2021/01/12 04:03:31;;;;;;;15.83;13.13;;;;;;;5.99;100.00;99473.47;5070461;28;20778;-73
2021/01/12 04:06:00;;;;;;;14.23;12.50;;;;;;;6.04;100.00;99468.91;5052521;28;20230;-73
2021/01/12 04:08:25;;;;;;;15.93;13.43;;;;;;;5.99;100.00;99465.41;5053646;28;20602;-73
2021/01/12 04:10:51;;;;;;;14.90;13.30;;;;;;;6.03;100.00;99461.91;5069882;28;20217;-72
2021/01/12 04:13:19;;;;;;;16.97;13.87;;;;;;;6.12;100.00;99460.28;5040238;28;20213;-72
2021/01/12 04:15:44;;;;;;;15.33;13.23;;;;;;;6.10;100.00;99457.06;5087935;28;20222;-72
2021/01/12 04:18:10;;;;;;;15.30;13.43;;;;;;;6.08;100.00;99461.91;5073677;28;20186;-73
2021/01/12 04:20:36;;;;;;;14.77;12.77;;;;;;;6.01;100.00;99461.38;5073143;28;20610;-73
2021/01/12 04:23:01;;;;;;;15.40;13.00;;;;;;;6.14;100.00;99442.75;5091406;28;20297;-73
2021/01/12 04:25:29;;;;;;;15.50;12.47;;;;;;;6.06;100.00;99447.88;5072206;28;20214;-73
2021/01/12 04:27:55;;;;;;;14.73;13.20;;;;;;;6.03;100.00;99451.13;5057556;28;20517;-73
2021/01/12 04:30:21;;;;;;;15.83;13.17;;;;;;;6.12;100.00;99449.50;5089925;28;20177;-73
2021/01/12 04:32:49;;;;;;;15.03;12.77;;;;;;;6.09;100.00;99439.25;5090323;28;20212;-73
2021/01/12 04:35:14;;;;;;;15.50;13.17;;;;;;;6.07;100.00;99441.41;5055615;28;20179;-73
2021/01/12 04:37:40;;;;;;;13.73;12.03;;;;;;;6.17;100.00;99436.81;5090170;28;20216;-73
2021/01/12 04:40:09;;;;;;;15.57;13.07;;;;;;;6.18;100.00;99432.22;5056663;28;20182;-73
2021/01/12 04:42:37;;;;;;;15.33;12.70;;;;;;;6.17;100.00;99441.38;5088249;28;20230;-73
2021/01/12 04:45:04;;;;;;;14.30;12.53;;;;;;;6.18;100.00;99426.84;5070204;28;20198;-73
2021/01/12 04:47:31;;;;;;;12.57;11.27;;;;;;;6.22;100.00;99430.59;5036343;28;20602;-73
2021/01/12 04:49:59;;;;;;;15.50;13.00;;;;;;;6.13;100.00;99426.84;5066600;28;20182;-73
2021/01/12 04:52:25;;;;;;;13.40;11.67;;;;;;;6.16;100.00;99413.63;5068815;28;20293;-73
2021/01/12 04:54:53;;;;;;;14.40;12.83;;;;;;;6.19;100.00;99417.66;5063217;28;20297;-73
2021/01/12 04:57:21;;;;;;;14.93;12.27;;;;;;;6.23;100.00;99418.75;5051439;28;20647;-73
2021/01/12 04:59:47;;;;;;;16.33;13.70;;;;;;;6.21;100.00;99426.31;5037398;28;20205;-73
2021/01/12 05:02:17;;;;;;;15.47;12.57;;;;;;;6.22;100.00;99417.13;5070990;28;20218;-73
2021/01/12 05:04:43;;;;;;;17.87;14.20;;;;;;;6.23;100.00;99407.97;5055289;28;20206;-73
2021/01/12 05:07:09;;;;;;;16.07;12.77;;;;;;;6.29;100.00;99414.94;5090700;28;20223;-74
2021/01/12 05:09:38;;;;;;;16.27;14.27;;;;;;;6.25;100.00;99413.88;5075072;28;20281;-73
2021/01/12 05:12:05;;;;;;;15.27;12.83;;;;;;;6.39;100.00;99396.84;5091444;28;20218;-73
2021/01/12 05:14:33;;;;;;;15.43;12.50;;;;;;;6.50;100.00;99397.59;5058324;28;20198;-73
2021/01/12 05:16:58;;;;;;;15.67;12.50;;;;;;;6.44;100.00;99396.81;5059027;28;20251;-73
2021/01/12 05:19:28;;;;;;;14.77;13.17;;;;;;;6.37;100.00;99393.59;5059650;28;20193;-73
2021/01/12 05:22:09;;;;;;;14.03;11.97;;;;;;;6.29;100.00;99390.69;5059559;28;20222;-73
2021/01/12 05:24:45;;;;;;;15.80;13.60;;;;;;;6.38;100.00;99383.66;5061364;28;20210;-73
2021/01/12 05:27:11;;;;;;;14.13;11.40;;;;;;;6.37;100.00;99379.31;5059445;28;20218;-73
2021/01/12 05:29:38;;;;;;;14.80;12.50;;;;;;;6.38;100.00;99378.25;5076381;28;20187;-73
2021/01/12 05:32:10;;;;;;;13.97;11.50;;;;;;;6.47;100.00;99376.59;5075871;28;20249;-73
2021/01/12 05:34:35;;;;;;;13.70;11.60;;;;;;;6.49;100.00;99369.84;5076749;28;20637;-74
2021/01/12 05:37:09;;;;;;;14.53;12.13;;;;;;;6.37;100.00;99371.22;5075843;28;20237;-73
2021/01/12 05:39:44;;;;;;;17.10;13.77;;;;;;;6.40;100.00;99376.88;5060353;28;20200;-73
2021/01/12 05:42:10;;;;;;;14.97;11.77;;;;;;;6.49;100.00;99374.44;5059757;28;20641;-73
2021/01/12 05:44:39;;;;;;;14.33;11.53;;;;;;;6.45;100.00;99366.09;5042697;28;20285;-74
2021/01/12 05:47:05;;;;;;;14.47;11.93;;;;;;;6.52;100.00;99363.91;5075493;28;20218;-73
2021/01/12 05:49:31;;;;;;;13.87;10.80;;;;;;;6.41;100.00;99356.94;5059245;28;20541;-73
2021/01/12 05:51:58;;;;;;;13.70;11.43;;;;;;;6.40;100.00;99359.91;5059902;28;20675;-73
2021/01/12 05:54:27;;;;;;;12.67;10.63;;;;;;;6.44;100.00;99352.88;5055523;28;20210;-75
2021/01/12 05:57:08;;;;;;;12.57;10.40;;;;;;;6.35;100.00;99349.13;5071694;28;20591;-74
2021/01/12 05:59:37;;;;;;;11.27;10.00;;;;;;;6.32;100.00;99344.31;5088350;28;20264;-73
2021/01/12 06:02:09;;;;;;;10.67;9.57;;;;;;;6.22;100.00;99358.63;5071784;28;20340;-73
2021/01/12 06:04:35;;;;;;;10.40;9.13;;;;;;;6.33;100.00;99346.72;5088553;28;20206;-73
2021/01/12 06:07:01;;;;;;;11.30;10.03;;;;;;;6.26;100.00;99343.53;5071817;28;20226;-73
2021/01/12 06:09:26;;;;;;;10.67;9.20;;;;;;;6.27;100.00;99349.72;5089328;28;20219;-73
2021/01/12 06:11:58;;;;;;;10.67;9.17;;;;;;;6.37;100.00;99336.97;5088641;28;20218;-73
2021/01/12 06:14:28;;;;;;;11.77;10.07;;;;;;;6.34;100.00;99342.16;5071780;28;20211;-73
2021/01/12 06:16:54;;;;;;;12.40;9.73;;;;;;;6.47;100.00;99355.81;5087645;28;20223;-73
2021/01/12 06:19:26;;;;;;;11.17;9.97;;;;;;;6.26;100.00;99342.69;5055141;28;20547;-74
2021/01/12 06:21:55;;;;;;;9.67;8.60;;;;;;;6.41;100.00;99350.72;5087838;28;20306;-73
2021/01/12 06:24:35;;;;;;;9.97;8.67;;;;;;;6.32;100.00;99338.91;5071624;28;20203;-72
2021/01/12 06:27:09;;;;;;;9.50;8.50;;;;;;;6.39;100.00;99352.88;5072694;28;20719;-73
2021/01/12 06:29:35;;;;;;;10.37;8.67;;;;;;;6.42;100.00;99352.34;5055311;28;20598;-73
2021/01/12 06:32:03;;;;;;;10.57;8.77;;;;;;;6.44;100.00;99348.28;5054581;28;20238;-73
2021/01/12 06:34:31;;;;;;;8.87;7.97;;;;;;;6.44;100.00;99342.09;5071438;28;20680;-73
2021/01/12 06:36:59;;;;;;;10.07;8.50;;;;;;;6.44;100.00;99334.00;5071319;28;20754;-74
2021/01/12 06:39:52;;;;;;;8.97;7.97;;;;;;;6.46;100.00;99348.00;5088270;28;20619;-73
2021/01/12 06:42:23;;;;;;;10.27;8.93;;;;;;;6.39;100.00;99347.50;5070893;28;20735;-73
2021/01/12 06:44:49;;;;;;;9.53;8.23;;;;;;;6.44;100.00;99339.38;5071025;28;20206;-73
2021/01/12 06:47:21;;;;;;;10.40;9.30;;;;;;;6.39;100.00;99342.09;5087701;28;20219;-73
2021/01/12 06:49:47;;;;;;;10.03;8.50;;;;;;;6.31;100.00;99350.78;5054848;28;20283;-73
2021/01/12 06:52:15;;;;;;;10.93;8.40;;;;;;;6.34;100.00;99352.94;5054787;28;20268;-73
2021/01/12 06:54:48;;;;;;;10.20;8.53;;;;;;;6.42;100.00;99352.34;5054979;28;20202;-73
2021/01/12 06:57:23;;;;;;;10.33;9.23;;;;;;;6.53;100.00;99355.50;5070917;28;20234;-73
2021/01/12 06:59:56;;;;;;;10.70;8.87;;;;;;;6.45;100.00;99354.50;5054594;28;20193;-73
2021/01/12 07:02:26;;;;;;;11.37;9.53;;;;;;;6.65;100.00;99353.28;5037892;28;20619;-73
2021/01/12 07:05:07;;;;;;;11.13;9.10;;;;;;;6.45;100.00;99351.81;5054196;28;20790;-73
2021/01/12 07:07:39;;;;;;;11.10;9.63;;;;;;;6.42;100.00;99352.34;5087469;28;20271;-74
2021/01/12 07:10:12;;;;;;;10.57;9.47;;;;;;;6.53;100.00;99344.72;5052216;28;20223;-73
2021/01/12 07:12:37;;;;;;;8.93;8.03;;;;;;;6.52;100.00;99345.81;5074477;28;20262;-73
2021/01/12 07:15:16;;;;;;;9.00;8.10;;;;;;;6.62;100.00;99347.66;5090210;28;20229;-73
2021/01/12 07:17:48;;;;;;;9.67;8.17;;;;;;;6.55;100.00;99344.44;5059453;28;20177;-73
2021/01/12 07:20:19;;;;;;;9.80;8.53;;;;;;;6.51;100.00;99362.28;5074446;28;20614;-73
2021/01/12 07:23:04;;;;;;;9.90;8.13;;;;;;;6.35;100.00;99373.41;5092209;28;20211;-73
2021/01/12 07:25:43;;;;;;;4.50;3.20;;;;;;;6.10;100.00;99376.22;5088941;28;20260;-74
2021/01/12 07:28:18;;;;;;;4.33;2.83;;;;;;;6.10;100.00;99376.22;5072978;28;20610;-73
2021/01/12 07:30:44;;;;;;;2.50;2.30;;;;;;;6.03;100.00;99383.75;5053419;28;20291;-72
2021/01/12 07:33:24;;;;;;;2.47;2.20;;;;;;;6.07;100.00;99387.53;5090933;28;20206;-73
2021/01/12 07:35:56;;;;;;;3.07;1.97;;;;;;;5.93;100.00;99391.06;5090298;28;20221;-73
2021/01/12 07:38:28;;;;;;;2.10;1.90;;;;;;;6.06;100.00;99391.28;5058242;28;20569;-72
2021/01/12 07:40:55;;;;;;;2.23;1.97;;;;;;;5.84;100.00;99401.59;5073226;28;20706;-73
2021/01/12 07:43:22;;;;;;;1.90;1.70;;;;;;;5.91;100.00;99399.41;5074125;28;20214;-72
2021/01/12 07:45:49;;;;;;;1.20;1.10;;;;;;;5.50;100.00;99425.84;5055919;28;20699;-71
2021/01/12 07:48:15;;;;;;;2.40;0.67;;;;;;;4.98;100.00;99425.25;5091029;28;20240;-71
2021/01/12 07:50:50;;;;;;;2.80;0.80;;;;;;;4.72;100.00;99433.50;5072751;28;20225;-73
2021/01/12 07:53:16;;;;;;;1.50;0.70;;;;;;;4.54;100.00;99435.06;5090701;28;20676;-73
2021/01/12 07:55:43;;;;;;;3.53;0.70;;;;;;;4.56;100.00;99424.84;5089189;28;20244;-72
2021/01/12 07:58:09;;;;;;;4.10;1.03;;;;;;;4.27;100.00;99445.97;5073980;28;20190;-73
2021/01/12 08:00:35;;;;;;;1.67;0.50;;;;;;;4.30;100.00;99453.53;5072897;28;20791;-72
2021/01/12 08:03:01;;;;;;;4.40;1.00;;;;;;;4.20;100.00;99446.47;5073611;28;20214;-73
2021/01/12 08:05:27;;;;;;;5.00;1.00;;;;;;;4.20;100.00;99457.22;5071576;28;20637;-72
2021/01/12 08:08:02;;;;;;;3.77;1.00;;;;;;;4.20;100.00;99464.19;5078576;28;20533;-70
2021/01/12 08:10:29;;;;;;;2.97;0.97;;;;;;;4.25;100.00;99464.25;5070086;28;20631;-72
2021/01/12 08:13:08;;;;;;;2.93;1.30;;;;;;;4.20;100.00;99474.94;5070338;28;20163;-72
2021/01/12 08:15:36;;;;;;;3.50;1.47;;;;;;;4.17;100.00;99481.91;5085933;28;20297;-71
2021/01/12 08:18:05;;;;;;;4.80;1.20;;;;;;;4.01;100.00;99486.41;5052404;28;20189;-71
2021/01/12 08:20:33;;;;;;;2.30;1.30;;;;;;;4.12;100.00;99493.44;5086389;28;20229;-72
2021/01/12 08:22:59;;;;;;;3.13;1.20;;;;;;;4.08;100.00;99491.53;5090389;28;20732;-72
2021/01/12 08:25:25;;;;;;;5.10;1.57;;;;;;;4.08;100.00;99499.59;5073000;28;20222;-71
2021/01/12 08:27:52;;;;;;;1.70;0.97;;;;;;;4.11;100.00;99497.19;5089530;28;20187;-72
2021/01/12 08:30:19;;;;;;;3.77;1.10;;;;;;;4.12;100.00;99498.81;5032660;28;20663;-71
2021/01/12 08:33:24;;;;;;;2.20;0.93;;;;;;;4.20;100.00;99494.84;5064772;28;20213;-71
2021/01/12 08:36:13;;;;;;;1.60;1.00;;;;;;;4.37;100.00;99502.44;5072823;28;20222;-72
2021/01/12 08:38:42;;;;;;;3.67;0.83;;;;;;;4.22;100.00;99507.72;5044263;28;20191;-72
2021/01/12 08:41:08;;;;;;;3.80;0.93;;;;;;;4.19;100.00;99507.44;5057574;28;20225;-72
2021/01/12 08:43:36;;;;;;;3.73;0.90;;;;;;;4.12;100.00;99517.63;5090023;28;20241;-72
2021/01/12 08:46:02;;;;;;;1.70;0.60;;;;;;;4.15;100.00;99518.97;5062032;28;20214;-72
2021/01/12 08:48:31;;;;;;;4.50;0.90;;;;;;;4.26;100.00;99521.47;5077105;28;20261;-74
2021/01/12 08:50:59;;;;;;;3.33;1.20;;;;;;;4.08;100.00;99523.75;5091066;28;20297;-71
2021/01/12 08:53:27;;;;;;;5.03;0.87;;;;;;;4.05;100.00;99524.28;5087084;28;20272;-74
2021/01/12 08:56:05;;;;;;;3.03;1.00;;;;;;;4.13;100.00;99531.84;5073579;28;20687;-72
2021/01/12 08:58:31;;;;;;;6.27;1.10;;;;;;;4.23;100.00;99538.09;5060242;28;20280;-72
2021/01/12 09:01:00;;;;;;;4.60;1.20;;;;;;;4.29;100.00;99537.88;5091585;28;20323;-72
2021/01/12 09:03:30;;;;;;;5.70;1.20;;;;;;;4.50;100.00;99539.59;5078065;28;20205;-72
2021/01/12 09:05:55;;;;;;;4.13;1.47;;;;;;;4.55;100.00;99538.84;5058167;28;20231;-72
2021/01/12 09:08:22;;;;;;;3.73;1.13;;;;;;;4.58;100.00;99539.13;5077038;28;20182;-72
2021/01/12 09:10:48;;;;;;;3.33;0.93;;;;;;;4.51;100.00;99546.63;5076803;28;20222;-72
2021/01/12 09:13:14;;;;;;;4.47;1.10;;;;;;;4.42;100.00;99558.13;5093908;28;20277;-71
2021/01/12 09:15:49;;;;;;;6.23;1.10;;;;;;;4.06;100.00;99558.13;5056572;28;20233;-72
2021/01/12 09:18:19;;;;;;;3.67;1.20;;;;;;;3.90;100.00;99543.78;5060409;28;20663;-72
2021/01/12 09:20:54;;;;;;;6.57;1.03;;;;;;;3.97;100.00;99554.28;5045287;28;20260;-72
2021/01/12 09:23:20;;;;;;;4.57;1.27;;;;;;;4.02;100.00;99555.13;5082752;28;20206;-72
2021/01/12 09:25:58;;;;;;;6.93;1.20;;;;;;;4.02;100.00;99555.13;5078279;28;20232;-72
2021/01/12 09:28:31;;;;;;;5.97;1.13;;;;;;;4.10;100.00;99560.03;5078573;28;20183;-72
2021/01/12 09:31:17;;;;;;;2.80;0.70;;;;;;;4.02;100.00;99567.78;5085711;28;20221;-71
2021/01/12 09:33:52;;;;;;;6.57;1.30;;;;;;;4.14;100.00;99552.28;5057542;28;20205;-71
2021/01/12 09:36:18;;;;;;;5.10;1.50;;;;;;;4.28;100.00;99560.44;5068050;28;20226;-72
2021/01/12 09:38:48;;;;;;;3.63;1.20;;;;;;;4.31;100.00;99564.50;5045142;28;20205;-72
2021/01/12 09:41:14;;;;;;;3.40;1.03;;;;;;;4.28;100.00;99573.88;5076548;28;20218;-71
2021/01/12 09:43:40;;;;;;;6.67;1.40;;;;;;;4.37;100.00;99566.94;5044888;28;20206;-72
2021/01/12 09:46:06;;;;;;;5.93;1.20;;;;;;;4.33;100.00;99571.22;5073128;28;20232;-72
2021/01/12 09:48:32;;;;;;;7.10;1.40;;;;;;;4.47;100.00;99572.41;5068585;28;20202;-72
2021/01/12 09:51:01;;;;;;;2.13;0.90;;;;;;;4.26;100.00;99576.00;5074048;28;20717;-72
2021/01/12 09:53:27;;;;;;;2.73;1.10;;;;;;;4.42;100.00;99574.25;5089490;28;20221;-72
2021/01/12 09:55:55;;;;;;;5.90;1.20;;;;;;;4.62;100.00;99578.66;5058852;28;20218;-73
2021/01/12 09:58:20;;;;;;;7.40;1.73;;;;;;;4.59;100.00;99583.75;5092912;28;20667;-72
2021/01/12 10:00:49;;;;;;;8.10;1.30;;;;;;;4.72;100.00;99586.78;5072198;28;20284;-72
2021/01/12 10:03:14;;;;;;;3.23;1.13;;;;;;;4.58;100.00;99588.31;5055945;28;20211;-72
2021/01/12 10:05:40;;;;;;;6.17;1.40;;;;;;;4.60;100.00;99588.06;5053341;28;20222;-72
2021/01/12 10:08:06;;;;;;;4.37;1.27;;;;;;;4.79;100.00;99587.38;5092988;28;20265;-72
2021/01/12 10:10:34;;;;;;;5.53;1.47;;;;;;;4.84;100.00;99590.09;5074544;28;20214;-72
2021/01/12 10:13:03;;;;;;;4.13;1.00;;;;;;;4.64;100.00;99597.22;5074421;28;20178;-72
2021/01/12 10:15:28;;;;;;;7.43;1.93;;;;;;;4.80;100.00;99599.75;5042600;28;20217;-73
2021/01/12 10:17:54;;;;;;;5.93;1.10;;;;;;;4.56;100.00;99597.72;5043036;28;20277;-72
2021/01/12 10:20:20;;;;;;;4.67;0.93;;;;;;;4.47;100.00;99601.13;5092004;28;20210;-71
2021/01/12 10:22:50;;;;;;;6.67;1.10;;;;;;;4.54;100.00;99607.91;5056402;28;20255;-73
2021/01/12 10:25:18;;;;;;;3.67;1.00;;;;;;;4.79;100.00;99605.38;5075599;28;20316;-72
2021/01/12 10:27:46;;;;;;;2.87;1.00;;;;;;;4.92;100.00;99607.59;5058207;28;20185;-73
2021/01/12 10:30:13;;;;;;;4.83;1.60;;;;;;;5.19;100.00;99604.50;5074762;28;20209;-72
2021/01/12 10:32:41;;;;;;;5.37;1.50;;;;;;;5.07;100.00;99595.84;5056638;28;20209;-72
2021/01/12 10:35:10;;;;;;;7.10;1.07;;;;;;;5.40;100.00;99598.09;5057628;28;20202;-72
2021/01/12 10:37:35;;;;;;;4.67;0.90;;;;;;;5.18;100.00;99594.00;5075750;28;20167;-74
2021/01/12 10:40:04;;;;;;;4.00;1.27;;;;;;;5.12;100.00;99598.53;5075357;28;20243;-72
2021/01/12 10:42:30;;;;;;;5.67;1.13;;;;;;;5.29;100.00;99599.13;5057371;28;20222;-72
2021/01/12 10:44:56;;;;;;;4.23;1.20;;;;;;;5.19;100.00;99604.50;5083063;28;20209;-72
2021/01/12 10:47:22;;;;;;;5.70;1.07;;;;;;;5.10;100.00;99606.06;5049781;28;20269;-72
2021/01/12 10:49:48;;;;;;;6.20;1.03;;;;;;;5.18;100.00;99602.91;5073957;28;20179;-72
2021/01/12 10:52:14;;;;;;;7.50;1.47;;;;;;;5.06;100.00;99599.59;5081034;28;20221;-72
2021/01/12 10:54:41;;;;;;;4.83;1.20;;;;;;;5.00;100.00;99605.25;5073935;28;20760;-72
2021/01/12 10:57:12;;;;;;;6.60;1.40;;;;;;;5.01;100.00;99601.47;5074051;28;20221;-72
2021/01/12 10:59:38;;;;;;;4.67;1.30;;;;;;;5.18;100.00;99607.44;5037494;28;20721;-72
2021/01/12 11:02:05;;;;;;;6.57;1.37;;;;;;;5.23;100.00;99605.59;5068470;28;20226;-72
2021/01/12 11:04:31;;;;;;;6.50;1.33;;;;;;;5.08;100.00;99596.66;5085422;28;20702;-73
2021/01/12 11:07:01;;;;;;;14.70;4.77;;;;;;;4.77;100.00;99607.53;5080469;28;20694;-72
2021/01/12 11:09:31;;;;;;;8.43;2.17;;;;;;;4.82;100.00;99613.75;5074292;28;20182;-72
2021/01/12 11:12:04;;;;;;;4.47;1.33;;;;;;;4.79;100.00;99608.06;5077473;28;20294;-72
2021/01/12 11:14:36;;;;;;;9.93;2.37;;;;;;;4.91;100.00;99616.72;5088154;28;20340;-72
2021/01/12 11:17:04;;;;;;;15.77;5.43;;;;;;;4.96;100.00;99606.81;5090314;28;20232;-72
2021/01/12 11:19:34;;;;;;;11.03;5.03;;;;;;;4.79;100.00;99605.38;5068379;28;20685;-72
2021/01/12 11:21:59;;;;;;;7.33;1.77;;;;;;;4.65;100.00;99607.72;5084154;28;20231;-72
2021/01/12 11:24:26;;;;;;;12.23;4.33;;;;;;;4.61;100.00;99605.81;5073833;28;20565;-72
2021/01/12 11:26:52;;;;;;;9.17;3.20;;;;;;;4.62;100.00;99612.81;5053064;28;20234;-73
2021/01/12 11:29:21;;;;;;;4.67;1.40;;;;;;;4.74;100.00;99616.09;5071086;28;20186;-72